createdAt,value
2022-12-03T00:00:40.194Z,100908.34
2022-12-03T00:03:06.960Z,100910.00
2022-12-03T00:05:33.621Z,100914.34
2022-12-03T00:08:00.312Z,100909.84
2022-12-03T00:10:27.031Z,100909.09
2022-12-03T00:12:53.599Z,100909.16
2022-12-03T00:15:20.227Z,100906.50
2022-12-03T00:17:46.829Z,100900.44
2022-12-03T00:20:24.222Z,100904.00
2022-12-03T00:22:50.815Z,100902.34
2022-12-03T00:25:17.817Z,100904.03
2022-12-03T00:27:44.455Z,100903.09
2022-12-03T00:30:12.230Z,100901.41
2022-12-03T00:32:38.808Z,100897.19
2022-12-03T00:35:05.650Z,100904.94
2022-12-03T00:37:32.323Z,100892.84
2022-12-03T00:39:58.857Z,100900.63
2022-12-03T00:42:25.414Z,100899.75
2022-12-03T00:44:52.145Z,100898.00
2022-12-03T00:47:18.945Z,100892.84
2022-12-03T00:49:45.518Z,100891.09
2022-12-03T00:52:12.128Z,100898.81
2022-12-03T00:54:38.703Z,100893.69
2022-12-03T00:57:05.332Z,100896.16
2022-12-03T00:59:31.902Z,100902.34
2022-12-03T01:01:58.502Z,100907.53
2022-12-03T01:04:25.220Z,100906.44
2022-12-03T01:06:51.918Z,100902.09
2022-12-03T01:09:18.581Z,100894.44
2022-12-03T01:11:45.151Z,100897.09
2022-12-03T01:14:16.979Z,100894.59
2022-12-03T01:16:44.215Z,100895.41
2022-12-03T01:19:11.313Z,100891.88
2022-12-03T01:21:38.002Z,100896.25
2022-12-03T01:24:05.311Z,100893.78
2022-12-03T01:26:31.864Z,100895.44
2022-12-03T01:28:58.429Z,100890.25
2022-12-03T01:31:43.372Z,100889.34
2022-12-03T01:34:09.906Z,100885.00
2022-12-03T01:36:36.475Z,100892.78
2022-12-03T01:39:04.485Z,100889.38
2022-12-03T01:41:32.214Z,100890.16
2022-12-03T01:44:00.025Z,100890.16
2022-12-03T01:46:39.632Z,100886.66
2022-12-03T01:49:09.467Z,100891.00
2022-12-03T01:51:36.095Z,100886.69
2022-12-03T01:54:03.442Z,100882.31
2022-12-03T01:56:29.994Z,100879.69
2022-12-03T01:58:56.582Z,100876.25
2022-12-03T02:01:23.200Z,100878.91
2022-12-03T02:03:49.871Z,100878.06
2022-12-03T02:06:19.289Z,100878.81
2022-12-03T02:08:47.304Z,100877.16
2022-12-03T02:11:16.739Z,100871.00
2022-12-03T02:13:44.228Z,100875.38
2022-12-03T02:16:11.034Z,100871.06
2022-12-03T02:18:37.682Z,100876.25
2022-12-03T02:21:04.235Z,100875.31
2022-12-03T02:23:54.144Z,100879.63
2022-12-03T02:26:21.169Z,100878.81
2022-12-03T02:28:47.760Z,100878.03
2022-12-03T02:31:14.364Z,100873.72
2022-12-03T02:33:41.014Z,100869.31
2022-12-03T02:36:08.128Z,100873.69
2022-12-03T02:38:35.860Z,100871.00
2022-12-03T02:41:09.411Z,100875.41
2022-12-03T02:43:36.789Z,100871.00
2022-12-03T02:46:04.520Z,100878.75
2022-12-03T02:48:37.129Z,100870.16
2022-12-03T02:51:09.178Z,100866.66
2022-12-03T02:53:44.359Z,100870.09
2022-12-03T02:56:14.222Z,100873.66
2022-12-03T02:58:41.828Z,100871.09
2022-12-03T03:01:09.594Z,100872.72
2022-12-03T03:03:52.711Z,100870.19
2022-12-03T03:06:19.996Z,100876.22
2022-12-03T03:08:46.655Z,100863.31
2022-12-03T03:11:13.318Z,100865.84
2022-12-03T03:13:40.118Z,100868.34
2022-12-03T03:16:08.074Z,100867.56
2022-12-03T03:18:35.128Z,100877.06
2022-12-03T03:21:03.034Z,100869.16
2022-12-03T03:23:29.602Z,100867.50
2022-12-03T03:26:11.825Z,100874.50
2022-12-03T03:28:41.946Z,100871.00
2022-12-03T03:31:11.267Z,100869.31
2022-12-03T03:33:39.614Z,100871.78
2022-12-03T03:36:07.262Z,100870.16
2022-12-03T03:38:34.634Z,100867.66
2022-12-03T03:41:03.230Z,100866.75
2022-12-03T03:43:31.048Z,100864.94
2022-12-03T03:45:57.691Z,100861.56
2022-12-03T03:48:24.471Z,100865.00
2022-12-03T03:50:51.971Z,100863.25
2022-12-03T03:53:20.100Z,100863.25
2022-12-03T03:55:46.987Z,100861.44
2022-12-03T03:58:13.877Z,100868.34
2022-12-03T04:00:43.987Z,100859.63
2022-12-03T04:03:11.242Z,100858.00
2022-12-03T04:05:38.041Z,100862.34
2022-12-03T04:08:04.960Z,100861.47
2022-12-03T04:10:49.813Z,100860.66
2022-12-03T04:13:16.360Z,100854.56
2022-12-03T04:15:42.894Z,100857.09
2022-12-03T04:18:28.026Z,100851.69
2022-12-03T04:21:17.165Z,100850.16
2022-12-03T04:23:43.724Z,100849.31
2022-12-03T04:26:28.835Z,100846.63
2022-12-03T04:28:55.868Z,100844.91
2022-12-03T04:31:40.844Z,100844.84
2022-12-03T04:34:27.235Z,100850.22
2022-12-03T04:36:53.817Z,100846.78
2022-12-03T04:39:21.163Z,100846.72
2022-12-03T04:41:47.853Z,100850.00
2022-12-03T04:44:32.803Z,100843.09
2022-12-03T04:47:06.915Z,100845.66
2022-12-03T04:49:34.346Z,100851.00
2022-12-03T04:52:00.960Z,100855.31
2022-12-03T04:54:28.254Z,100853.47
2022-12-03T04:56:54.874Z,100852.66
2022-12-03T04:59:21.620Z,100853.50
2022-12-03T05:01:48.293Z,100845.06
2022-12-03T05:04:15.414Z,100849.13
2022-12-03T05:06:42.176Z,100847.44
2022-12-03T05:09:09.252Z,100841.41
2022-12-03T05:11:35.819Z,100830.22
2022-12-03T05:14:02.463Z,100834.56
2022-12-03T05:16:29.192Z,100838.91
2022-12-03T05:18:55.813Z,100831.22
2022-12-03T05:21:22.479Z,100835.50
2022-12-03T05:23:49.017Z,100834.63
2022-12-03T05:26:15.792Z,100836.34
2022-12-03T05:28:42.295Z,100833.81
2022-12-03T05:31:09.115Z,100833.75
2022-12-03T05:33:40.883Z,100829.31
2022-12-03T05:36:10.408Z,100822.41
2022-12-03T05:38:36.959Z,100822.41
2022-12-03T05:41:23.531Z,100825.97
2022-12-03T05:43:50.071Z,100821.56
2022-12-03T05:46:16.708Z,100819.81
2022-12-03T05:48:43.311Z,100821.47
2022-12-03T05:51:09.781Z,100817.16
2022-12-03T05:53:36.322Z,100821.50
2022-12-03T05:56:02.824Z,100822.41
2022-12-03T05:58:29.350Z,100820.66
2022-12-03T06:00:55.855Z,100825.69
2022-12-03T06:03:22.491Z,100823.31
2022-12-03T06:05:49.107Z,100820.56
2022-12-03T06:08:15.678Z,100828.47
2022-12-03T06:10:42.277Z,100824.16
2022-12-03T06:13:08.938Z,100818.06
2022-12-03T06:15:41.980Z,100820.50
2022-12-03T06:18:10.173Z,100824.00
2022-12-03T06:20:36.684Z,100818.91
2022-12-03T06:23:03.351Z,100826.63
2022-12-03T06:25:29.906Z,100819.75
2022-12-03T06:27:56.456Z,100819.81
2022-12-03T06:30:22.991Z,100822.25
2022-12-03T06:32:49.581Z,100825.91
2022-12-03T06:35:16.120Z,100827.66
2022-12-03T06:37:42.605Z,100833.75
2022-12-03T06:40:09.604Z,100828.47
2022-12-03T06:42:36.167Z,100829.34
2022-12-03T06:45:03.443Z,100825.97
2022-12-03T06:47:29.933Z,100824.16
2022-12-03T06:49:56.469Z,100826.81
2022-12-03T06:52:23.041Z,100827.72
2022-12-03T06:54:49.557Z,100834.56
2022-12-03T06:57:16.376Z,100827.72
2022-12-03T06:59:42.918Z,100831.91
2022-12-03T07:02:11.254Z,100830.28
2022-12-03T07:04:42.018Z,100826.75
2022-12-03T07:07:11.445Z,100830.16
2022-12-03T07:09:37.965Z,100830.03
2022-12-03T07:12:04.710Z,100824.09
2022-12-03T07:14:31.307Z,100822.34
2022-12-03T07:16:57.833Z,100825.88
2022-12-03T07:19:30.667Z,100831.63
2022-12-03T07:21:58.989Z,100828.81
2022-12-03T07:24:25.603Z,100829.00
2022-12-03T07:26:52.211Z,100828.91
2022-12-03T07:29:18.740Z,100824.47
2022-12-03T07:31:45.312Z,100827.97
2022-12-03T07:34:12.020Z,100828.31
2022-12-03T07:36:38.607Z,100832.56
2022-12-03T07:39:05.412Z,100827.31
2022-12-03T07:41:32.102Z,100828.19
2022-12-03T07:43:58.638Z,100830.78
2022-12-03T07:46:25.234Z,100835.91
2022-12-03T07:48:51.776Z,100835.19
2022-12-03T07:51:18.314Z,100836.88
2022-12-03T07:53:44.856Z,100836.88
2022-12-03T07:56:11.421Z,100835.13
2022-12-03T07:58:37.930Z,100830.78
2022-12-03T08:01:04.637Z,100826.47
2022-12-03T08:03:31.238Z,100827.25
2022-12-03T08:05:57.804Z,100828.03
2022-12-03T08:08:24.481Z,100823.75
2022-12-03T08:10:50.968Z,100829.81
2022-12-03T08:13:18.983Z,100817.50
2022-12-03T08:15:46.025Z,100825.22
2022-12-03T08:18:22.434Z,100828.69
2022-12-03T08:20:51.939Z,100823.56
2022-12-03T08:23:19.859Z,100826.16
2022-12-03T08:25:48.746Z,100811.09
2022-12-03T08:28:17.097Z,100806.13
2022-12-03T08:30:45.174Z,100803.47
2022-12-03T08:33:20.366Z,100804.31
2022-12-03T08:35:51.000Z,100799.03
2022-12-03T08:38:22.224Z,100798.84
2022-12-03T08:40:51.466Z,100805.91
2022-12-03T08:43:29.302Z,100801.16
2022-12-03T08:45:57.435Z,100803.69
2022-12-03T08:48:36.775Z,100804.44
2022-12-03T08:51:11.254Z,100809.91
2022-12-03T08:54:12.760Z,100814.81
2022-12-03T08:56:39.526Z,100818.69
2022-12-03T08:59:25.404Z,100825.91
2022-12-03T09:01:53.778Z,100825.81
2022-12-03T09:04:29.189Z,100822.09
2022-12-03T09:06:56.298Z,100817.91
2022-12-03T09:09:23.960Z,100820.94
2022-12-03T09:11:51.108Z,100816.00
2022-12-03T09:14:21.099Z,100811.91
2022-12-03T09:16:48.380Z,100817.81
2022-12-03T09:19:15.501Z,100815.94
2022-12-03T09:21:42.076Z,100813.28
2022-12-03T09:24:08.777Z,100809.91
2022-12-03T09:26:35.447Z,100809.72
2022-12-03T09:29:05.327Z,100810.28
2022-12-03T09:31:35.733Z,100815.69
2022-12-03T09:34:03.562Z,100809.88
2022-12-03T09:36:30.160Z,100809.56
2022-12-03T09:38:57.198Z,100807.03
2022-12-03T09:41:25.121Z,100798.41
2022-12-03T09:44:15.522Z,100806.75
2022-12-03T09:46:40.810Z,100802.63
2022-12-03T09:49:15.779Z,100811.38
2022-12-03T09:51:49.511Z,100810.75
2022-12-03T09:54:26.343Z,100807.13
2022-12-03T09:56:54.918Z,100807.13
2022-12-03T09:59:26.061Z,100802.59
2022-12-03T10:01:54.425Z,100800.00
2022-12-03T10:04:21.621Z,100800.03
2022-12-03T10:06:48.422Z,100799.22
2022-12-03T10:09:22.473Z,100799.94
2022-12-03T10:11:49.410Z,100795.56
2022-12-03T10:14:18.614Z,100795.53
2022-12-03T10:16:46.090Z,100793.69
2022-12-03T10:19:29.315Z,100792.25
2022-12-03T10:21:56.010Z,100781.69
2022-12-03T10:24:34.183Z,100784.34
2022-12-03T10:27:03.271Z,100781.75
2022-12-03T10:29:34.404Z,100776.81
2022-12-03T10:32:07.807Z,100776.31
2022-12-03T10:34:37.538Z,100772.88
2022-12-03T10:37:09.188Z,100776.47
2022-12-03T10:39:58.544Z,100769.75
2022-12-03T10:42:32.198Z,100768.56
2022-12-03T10:45:19.731Z,100766.75
2022-12-03T10:48:02.300Z,100764.19
2022-12-03T10:50:29.186Z,100764.69
2022-12-03T10:52:56.003Z,100769.22
2022-12-03T10:55:22.723Z,100764.66
2022-12-03T10:57:49.502Z,100770.00
2022-12-03T11:00:19.829Z,100761.31
2022-12-03T11:02:56.074Z,100772.59
2022-12-03T11:05:29.235Z,100766.63
2022-12-03T11:07:56.851Z,100764.06
2022-12-03T11:10:23.862Z,100760.69
2022-12-03T11:13:27.636Z,100751.97
2022-12-03T11:15:54.651Z,100748.41
2022-12-03T11:18:50.664Z,100748.47
2022-12-03T11:21:17.257Z,100751.72
2022-12-03T11:23:47.009Z,100752.47
2022-12-03T11:26:19.759Z,100745.44
2022-12-03T11:28:46.594Z,100741.94
2022-12-03T11:31:42.889Z,100738.44
2022-12-03T11:34:18.684Z,100737.69
2022-12-03T11:37:10.338Z,100728.66
2022-12-03T11:39:52.959Z,100728.13
2022-12-03T11:42:25.705Z,100719.06
2022-12-03T11:45:04.647Z,100726.22
2022-12-03T11:47:31.304Z,100727.28
2022-12-03T11:49:58.170Z,100728.19
2022-12-03T11:52:39.993Z,100718.00
2022-12-03T11:55:30.339Z,100721.84
2022-12-03T11:58:00.816Z,100716.13
2022-12-03T12:00:27.760Z,100711.44
2022-12-03T12:02:56.182Z,100719.59
2022-12-03T12:05:32.689Z,100719.34
2022-12-03T12:08:01.671Z,100711.16
2022-12-03T12:10:47.587Z,100707.25
2022-12-03T12:13:30.472Z,100708.22
2022-12-03T12:16:07.531Z,100706.34
2022-12-03T12:18:53.683Z,100705.59
2022-12-03T12:21:42.127Z,100703.97
2022-12-03T12:24:30.914Z,100710.63
2022-12-03T12:27:04.466Z,100702.66
2022-12-03T12:29:31.468Z,100693.63
2022-12-03T12:32:15.277Z,100690.47
2022-12-03T12:34:50.448Z,100683.81
2022-12-03T12:37:47.337Z,100680.19
2022-12-03T12:40:17.777Z,100680.31
2022-12-03T12:42:57.917Z,100680.44
2022-12-03T12:45:30.290Z,100680.31
2022-12-03T12:48:31.218Z,100680.88
2022-12-03T12:51:12.880Z,100673.88
2022-12-03T12:53:42.940Z,100670.47
2022-12-03T12:56:32.143Z,100659.19
2022-12-03T12:59:09.624Z,100664.28
2022-12-03T13:01:37.323Z,100652.13
2022-12-03T13:04:11.707Z,100660.75
2022-12-03T13:06:38.715Z,100655.41
2022-12-03T13:09:14.580Z,100654.47
2022-12-03T13:11:45.692Z,100658.16
2022-12-03T13:14:17.456Z,100658.91
2022-12-03T13:16:44.620Z,100650.97
2022-12-03T13:19:24.759Z,100655.25
2022-12-03T13:21:53.932Z,100657.97
2022-12-03T13:24:37.495Z,100656.78
2022-12-03T13:27:16.313Z,100643.13
2022-12-03T13:29:43.562Z,100643.13
2022-12-03T13:32:20.633Z,100643.84
2022-12-03T13:34:48.255Z,100647.34
2022-12-03T13:37:19.938Z,100648.22
2022-12-03T13:39:51.143Z,100646.97
2022-12-03T13:42:45.218Z,100647.53
2022-12-03T13:45:14.969Z,100646.81
2022-12-03T13:47:46.550Z,100648.38
2022-12-03T13:50:38.880Z,100651.56
2022-12-03T13:53:11.502Z,100641.06
2022-12-03T13:55:46.470Z,100643.72
2022-12-03T13:58:13.506Z,100642.66
2022-12-03T14:00:40.104Z,100643.56
2022-12-03T14:03:06.940Z,100648.38
2022-12-03T14:05:33.598Z,100649.94
2022-12-03T14:08:02.297Z,100638.41
2022-12-03T14:10:29.735Z,100647.28
2022-12-03T14:12:56.560Z,100633.63
2022-12-03T14:15:23.409Z,100635.53
2022-12-03T14:17:49.904Z,100638.16
2022-12-03T14:20:16.521Z,100633.97
2022-12-03T14:22:43.212Z,100643.94
2022-12-03T14:25:10.822Z,100644.66
2022-12-03T14:27:37.816Z,100633.16
2022-12-03T14:30:05.260Z,100642.00
2022-12-03T14:32:31.917Z,100638.16
2022-12-03T14:34:58.565Z,100633.66
2022-12-03T14:37:25.171Z,100635.66
2022-12-03T14:39:52.283Z,100634.97
2022-12-03T14:42:19.266Z,100635.88
2022-12-03T14:44:48.351Z,100640.41
2022-12-03T14:47:18.042Z,100637.94
2022-12-03T14:49:44.573Z,100637.44
2022-12-03T14:52:12.846Z,100639.81
2022-12-03T14:54:42.458Z,100640.47
2022-12-03T14:57:11.546Z,100643.47
2022-12-03T14:59:39.311Z,100640.31
2022-12-03T15:02:05.958Z,100640.19
2022-12-03T15:04:32.548Z,100638.66
2022-12-03T15:06:59.392Z,100639.59
2022-12-03T15:09:26.004Z,100632.47
2022-12-03T15:11:52.624Z,100642.09
2022-12-03T15:14:19.184Z,100638.66
2022-12-03T15:16:45.888Z,100642.78
2022-12-03T15:19:12.665Z,100640.44
2022-12-03T15:21:39.245Z,100641.13
2022-12-03T15:24:06.186Z,100636.16
2022-12-03T15:26:32.785Z,100638.78
2022-12-03T15:28:59.482Z,100641.78
2022-12-03T15:31:26.083Z,100648.91
2022-12-03T15:33:52.661Z,100640.19
2022-12-03T15:36:19.267Z,100644.13
2022-12-03T15:38:45.887Z,100642.69
2022-12-03T15:41:21.701Z,100637.06
2022-12-03T15:43:52.521Z,100638.88
2022-12-03T15:46:22.679Z,100636.16
2022-12-03T15:48:49.697Z,100638.06
2022-12-03T15:51:16.299Z,100631.28
2022-12-03T15:53:43.089Z,100633.31
2022-12-03T15:56:11.845Z,100632.16
2022-12-03T15:58:39.640Z,100635.75
2022-12-03T16:01:06.887Z,100637.44
2022-12-03T16:03:33.491Z,100631.25
2022-12-03T16:06:00.039Z,100638.16
2022-12-03T16:08:27.036Z,100641.91
2022-12-03T16:10:53.739Z,100640.25
2022-12-03T16:13:20.254Z,100635.34
2022-12-03T16:15:46.973Z,100639.03
2022-12-03T16:18:13.560Z,100629.63
2022-12-03T16:20:40.121Z,100627.94
2022-12-03T16:23:11.362Z,100631.75
2022-12-03T16:25:38.464Z,100637.19
2022-12-03T16:28:05.152Z,100625.97
2022-12-03T16:30:31.820Z,100624.78
2022-12-03T16:32:58.451Z,100625.03
2022-12-03T16:35:25.030Z,100619.91
2022-12-03T16:37:51.665Z,100625.25
2022-12-03T16:40:18.345Z,100627.00
2022-12-03T16:42:44.905Z,100626.16
2022-12-03T16:45:23.136Z,100623.59
2022-12-03T16:47:50.307Z,100618.34
2022-12-03T16:50:24.461Z,100622.47
2022-12-03T16:52:56.211Z,100628.41
2022-12-03T16:55:23.069Z,100621.94
2022-12-03T16:57:51.576Z,100622.13
2022-12-03T17:00:18.724Z,100617.75
2022-12-03T17:02:45.476Z,100617.78
2022-12-03T17:05:12.262Z,100618.00
2022-12-03T17:07:39.231Z,100616.44
2022-12-03T17:10:06.862Z,100616.44
2022-12-03T17:13:01.127Z,100614.66
2022-12-03T17:15:20.208Z,100617.50
2022-12-03T17:17:46.812Z,100623.59
2022-12-03T17:20:14.720Z,100613.00
2022-12-03T17:22:41.686Z,100615.28
2022-12-03T17:25:08.997Z,100613.03
2022-12-03T17:27:37.026Z,100613.03
2022-12-03T17:30:05.837Z,100607.59
2022-12-03T17:32:32.393Z,100607.44
2022-12-03T17:34:58.970Z,100606.91
2022-12-03T17:37:25.759Z,100604.28
2022-12-03T17:39:52.794Z,100604.28
2022-12-03T17:42:20.237Z,100606.00
2022-12-03T17:44:46.998Z,100601.59
2022-12-03T17:47:13.581Z,100598.19
2022-12-03T17:49:40.283Z,100593.84
2022-12-03T17:52:07.087Z,100593.13
2022-12-03T17:54:55.091Z,100592.97
2022-12-03T17:57:20.278Z,100596.47
2022-12-03T17:59:46.945Z,100601.28
2022-12-03T18:02:13.931Z,100596.91
2022-12-03T18:04:40.509Z,100590.16
2022-12-03T18:07:07.284Z,100587.97
2022-12-03T18:09:33.819Z,100585.34
2022-12-03T18:12:00.385Z,100591.06
2022-12-03T18:14:26.999Z,100586.81
2022-12-03T18:16:53.664Z,100592.06
2022-12-03T18:19:22.068Z,100583.25
2022-12-03T18:21:48.646Z,100586.78
2022-12-03T18:24:15.352Z,100585.03
2022-12-03T18:26:43.491Z,100589.84
2022-12-03T18:29:10.028Z,100586.66
2022-12-03T18:31:36.803Z,100590.13
2022-12-03T18:34:03.536Z,100595.56
2022-12-03T18:36:35.128Z,100588.00
2022-12-03T18:39:02.835Z,100595.94
2022-12-03T18:41:29.666Z,100593.06
2022-12-03T18:43:56.299Z,100589.53
2022-12-03T18:46:51.871Z,100591.50
2022-12-03T18:49:10.820Z,100584.31
2022-12-03T18:51:37.764Z,100583.50
2022-12-03T18:54:04.512Z,100580.97
2022-12-03T18:56:31.059Z,100579.34
2022-12-03T18:58:57.584Z,100581.88
2022-12-03T19:01:25.605Z,100583.69
2022-12-03T19:03:53.742Z,100582.84
2022-12-03T19:06:21.402Z,100587.00
2022-12-03T19:08:49.528Z,100589.25
2022-12-03T19:11:16.166Z,100581.31
2022-12-03T19:13:43.022Z,100591.31
2022-12-03T19:16:10.788Z,100589.47
2022-12-03T19:18:37.850Z,100582.66
2022-12-03T19:21:12.371Z,100586.88
2022-12-03T19:23:39.541Z,100579.63
2022-12-03T19:26:08.256Z,100586.22
2022-12-03T19:28:35.225Z,100587.16
2022-12-03T19:31:14.090Z,100581.22
2022-12-03T19:33:42.684Z,100585.38
2022-12-03T19:36:28.242Z,100588.78
2022-12-03T19:38:57.599Z,100592.53
2022-12-03T19:41:27.434Z,100588.81
2022-12-03T19:43:55.498Z,100584.16
2022-12-03T19:46:24.488Z,100585.38
2022-12-03T19:48:51.447Z,100592.34
2022-12-03T19:51:34.247Z,100590.47
2022-12-03T19:54:09.396Z,100591.38
2022-12-03T19:56:36.093Z,100582.78
2022-12-03T19:59:05.769Z,100585.13
2022-12-03T20:01:35.345Z,100586.09
2022-12-03T20:04:02.798Z,100585.22
2022-12-03T20:06:33.915Z,100591.66
2022-12-03T20:09:12.058Z,100584.41
2022-12-03T20:11:41.591Z,100585.41
2022-12-03T20:14:16.680Z,100582.06
2022-12-03T20:16:44.932Z,100585.38
2022-12-03T20:19:13.773Z,100588.00
2022-12-03T20:21:41.165Z,100585.00
2022-12-03T20:24:10.414Z,100589.63
2022-12-03T20:26:37.001Z,100587.59
2022-12-03T20:29:06.544Z,100582.22
2022-12-03T20:31:33.523Z,100586.06
2022-12-03T20:34:02.490Z,100585.56
2022-12-03T20:36:30.913Z,100580.81
2022-12-03T20:38:59.991Z,100580.81
2022-12-03T20:41:27.011Z,100577.00
2022-12-03T20:43:53.951Z,100572.78
2022-12-03T20:46:25.546Z,100578.94
2022-12-03T20:48:53.992Z,100570.44
2022-12-03T20:51:23.119Z,100569.56
2022-12-03T20:53:50.269Z,100567.34
2022-12-03T20:56:20.713Z,100572.16
2022-12-03T20:58:48.901Z,100564.59
2022-12-03T21:01:16.732Z,100566.22
2022-12-03T21:03:44.861Z,100565.47
2022-12-03T21:06:12.845Z,100570.81
2022-12-03T21:08:42.431Z,100569.91
2022-12-03T21:11:14.206Z,100570.91
2022-12-03T21:13:44.165Z,100569.94
2022-12-03T21:16:39.406Z,100568.88
2022-12-03T21:19:09.824Z,100563.75
2022-12-03T21:21:36.492Z,100562.91
2022-12-03T21:24:03.168Z,100562.78
2022-12-03T21:26:29.777Z,100560.50
2022-12-03T21:28:56.440Z,100562.00
2022-12-03T21:31:26.140Z,100562.56
2022-12-03T21:33:57.565Z,100551.75
2022-12-03T21:36:25.469Z,100557.72
2022-12-03T21:38:52.352Z,100562.34
2022-12-03T21:41:19.247Z,100558.13
2022-12-03T21:43:45.937Z,100553.03
2022-12-03T21:47:09.314Z,100558.09
2022-12-03T21:49:04.641Z,100560.28
2022-12-03T21:51:31.349Z,100557.31
2022-12-03T21:53:57.944Z,100557.25
2022-12-03T21:56:24.749Z,100560.81
2022-12-03T21:58:51.527Z,100554.47
2022-12-03T22:01:21.388Z,100562.66
2022-12-03T22:03:48.293Z,100556.03
2022-12-03T22:06:15.198Z,100524.56
2022-12-03T22:08:42.136Z,100545.25
2022-12-03T22:11:17.655Z,100543.47
2022-12-03T22:13:44.653Z,100553.22
2022-12-03T22:16:14.765Z,100561.38
2022-12-03T22:18:41.533Z,100558.13
2022-12-03T22:21:10.682Z,100551.97
2022-12-03T22:23:37.490Z,100550.56
2022-12-03T22:26:07.118Z,100554.84
2022-12-03T22:28:34.534Z,100568.03
2022-12-03T22:31:06.658Z,100555.78
2022-12-03T22:33:33.525Z,100550.31
2022-12-03T22:36:04.823Z,100550.28
2022-12-03T22:38:32.634Z,100552.06
2022-12-03T22:40:59.585Z,100550.50
2022-12-03T22:43:26.382Z,100555.91
2022-12-03T22:45:54.773Z,100547.19
2022-12-03T22:48:22.461Z,100542.69
2022-12-03T22:50:50.918Z,100548.97
2022-12-03T22:53:18.592Z,100546.25
2022-12-03T22:55:45.541Z,100540.13
2022-12-03T22:58:15.248Z,100540.81
2022-12-03T23:00:42.083Z,100534.72
2022-12-03T23:03:09.072Z,100532.88
2022-12-03T23:05:38.706Z,100526.22
2022-12-03T23:08:08.722Z,100517.75
2022-12-03T23:10:40.978Z,100520.81
2022-12-03T23:13:09.642Z,100513.91
2022-12-03T23:15:43.918Z,100513.41
2022-12-03T23:18:10.478Z,100518.53
2022-12-03T23:20:43.054Z,100514.16
2022-12-03T23:23:09.880Z,100515.81
2022-12-03T23:25:37.317Z,100508.47
2022-12-03T23:28:08.817Z,100504.34
2022-12-03T23:30:37.608Z,100507.81
2022-12-03T23:33:08.585Z,100507.19
2022-12-03T23:35:35.261Z,100499.19
2022-12-03T23:38:01.811Z,100496.22
2022-12-03T23:40:28.409Z,100496.69
2022-12-03T23:42:55.116Z,100496.31
2022-12-03T23:45:21.847Z,100499.31
2022-12-03T23:47:49.748Z,100492.88
2022-12-03T23:50:17.904Z,100497.56
2022-12-03T23:52:44.462Z,100496.59
2022-12-03T23:55:11.031Z,100494.69
2022-12-03T23:57:37.588Z,100487.81
